Time;durP1;ratioP1;P1;durP2;ratioP2;P2;SDS_P1;SDS_P2;PMS_P1;PMS_P2;Temp;Humidity;BMP_temperature;BMP_pressure;BME280_temperature;BME280_humidity;BME280_pressure;Samples;Min_cycle;Max_cycle;Signal;HPM_P1;HPM_P2
2022/02/10 00:04:25;;;;;;;9.00;6.47;;;3.90;99.90;;;;;;5067119;28;20242;-74
2022/02/10 00:07:44;;;;;;;10.10;5.83;;;3.90;99.90;;;;;;5067454;28;20204;-74
2022/02/10 00:14:01;;;;;;;7.88;6.05;;;3.90;99.90;;;;;;5068175;28;20276;-73
2022/02/10 00:17:06;;;;;;;10.38;5.70;;;3.80;99.90;;;;;;5067944;28;20207;-74
2022/02/10 00:20:10;;;;;;;10.38;6.05;;;3.80;99.90;;;;;;5064690;28;20244;-73
2022/02/10 00:23:14;;;;;;;9.48;7.00;;;3.70;99.90;;;;;;5066683;28;20667;-74
2022/02/10 00:35:17;;;;;;;10.45;7.45;;;3.70;99.90;;;;;;5071792;28;20192;-72
2022/02/10 00:38:03;;;;;;;11.95;8.02;;;3.70;99.90;;;;;;5067096;28;20207;-73
2022/02/10 00:40:49;;;;;;;13.38;7.90;;;3.60;99.90;;;;;;5061518;28;20979;-72
2022/02/10 00:43:34;;;;;;;9.85;7.05;;;3.70;99.90;;;;;;5076803;28;20211;-73
2022/02/10 00:46:20;;;;;;;11.20;7.80;;;3.70;99.90;;;;;;5070892;28;20204;-73
2022/02/10 00:49:07;;;;;;;9.32;7.15;;;3.80;99.90;;;;;;5067339;28;20226;-73
2022/02/10 00:51:56;;;;;;;14.03;8.20;;;3.80;99.90;;;;;;5062204;28;20223;-73
2022/02/10 00:54:41;;;;;;;10.88;7.65;;;3.80;99.90;;;;;;5067263;28;20445;-69
2022/02/10 00:57:27;;;;;;;11.07;7.10;;;3.90;99.90;;;;;;5066813;28;20197;-73
2022/02/10 01:00:38;;;;;;;10.23;7.10;;;3.90;99.90;;;;;;5064000;28;20560;-70
2022/02/10 01:12:45;;;;;;;10.07;7.80;;;4.00;99.90;;;;;;5075638;28;20204;-73
2022/02/10 01:30:45;;;;;;;11.07;7.38;;;3.70;99.90;;;;;;5063073;28;20700;-72
2022/02/10 01:33:32;;;;;;;10.65;8.00;;;3.70;99.90;;;;;;5068345;28;20308;-73
2022/02/10 01:36:18;;;;;;;13.43;6.45;;;3.70;99.90;;;;;;5062597;28;20730;-73
2022/02/10 01:39:05;;;;;;;7.95;6.80;;;3.60;99.90;;;;;;5064152;28;20732;-73
2022/02/10 01:42:23;;;;;;;10.10;7.32;;;3.60;99.90;;;;;;5064943;28;20337;-73
2022/02/10 02:03:26;;;;;;;13.73;9.70;;;3.50;99.90;;;;;;5068282;28;20200;-73
2022/02/10 02:06:21;;;;;;;14.95;8.98;;;3.40;99.90;;;;;;5068922;28;20200;-72
2022/02/10 02:09:10;;;;;;;14.35;8.65;;;3.40;99.90;;;;;;5062527;28;20664;-73
2022/02/10 02:11:57;;;;;;;10.60;8.35;;;3.50;99.90;;;;;;5062689;28;20225;-74
2022/02/10 02:14:45;;;;;;;12.75;7.20;;;3.50;99.90;;;;;;5064631;28;20562;-74
2022/02/10 02:17:30;;;;;;;10.98;7.43;;;3.50;99.90;;;;;;5067917;28;20342;-71
2022/02/10 02:20:16;;;;;;;13.85;8.23;;;3.60;99.90;;;;;;5060312;28;20269;-74
2022/02/10 02:23:02;;;;;;;10.52;7.70;;;3.50;99.90;;;;;;5062460;28;20211;-73
2022/02/10 02:25:53;;;;;;;9.35;7.03;;;3.50;99.90;;;;;;5061541;28;20211;-73
2022/02/10 02:28:43;;;;;;;11.15;6.40;;;3.40;99.90;;;;;;5062230;28;20583;-73
2022/02/10 02:31:35;;;;;;;9.80;6.03;;;3.30;99.90;;;;;;5061602;28;20265;-71
2022/02/10 02:37:54;;;;;;;7.88;6.10;;;3.20;99.90;;;;;;5066480;28;20195;-72
2022/02/10 03:05:23;;;;;;;9.90;5.82;;;3.10;99.90;;;;;;5031272;28;20201;-76
2022/02/10 03:08:14;;;;;;;9.30;6.20;;;3.10;99.90;;;;;;5027077;28;20338;-75
2022/02/10 03:11:08;;;;;;;7.75;5.72;;;3.10;99.90;;;;;;5024639;28;20207;-76
2022/02/10 03:13:57;;;;;;;9.80;5.68;;;3.20;99.90;;;;;;5037377;28;20299;-76
2022/02/10 03:17:05;;;;;;;10.77;6.45;;;3.20;99.90;;;;;;5039169;28;20775;-76
2022/02/10 03:20:02;;;;;;;12.07;6.28;;;3.30;99.90;;;;;;5026708;28;20275;-76
2022/02/10 03:59:45;;;;;;;9.20;5.68;;;3.20;99.90;;;;;;5039373;28;20730;-76
2022/02/10 04:15:29;;;;;;;12.15;6.78;;;2.70;99.90;;;;;;5029295;28;20668;-73
2022/02/10 04:18:49;;;;;;;9.50;5.68;;;2.70;99.90;;;;;;5025977;28;20212;-75
2022/02/10 04:21:44;;;;;;;9.48;5.75;;;2.70;99.90;;;;;;5032127;28;20580;-75
2022/02/10 04:25:04;;;;;;;12.27;7.35;;;2.70;99.90;;;;;;5032502;28;20212;-75
2022/02/10 04:28:08;;;;;;;11.10;6.15;;;2.80;99.90;;;;;;5022623;28;20209;-75
2022/02/10 04:31:19;;;;;;;10.35;6.78;;;2.80;99.90;;;;;;5027211;28;20272;-74
2022/02/10 04:43:42;;;;;;;10.02;6.15;;;2.60;99.90;;;;;;5045892;28;20196;-75
2022/02/10 04:55:52;;;;;;;10.18;5.93;;;2.70;99.90;;;;;;5032648;28;20680;-76
2022/02/10 04:58:56;;;;;;;8.90;6.25;;;2.60;99.90;;;;;;5024773;28;20671;-75
2022/02/10 05:01:58;;;;;;;9.95;6.60;;;2.60;99.90;;;;;;5028117;28;20200;-75
2022/02/10 05:05:15;;;;;;;8.25;6.22;;;2.60;99.90;;;;;;5026200;28;20315;-75
2022/02/10 05:17:26;;;;;;;8.68;5.95;;;2.60;99.90;;;;;;5023191;28;20354;-75
2022/02/10 05:20:33;;;;;;;13.00;7.07;;;2.50;99.90;;;;;;5027200;28;20196;-75
2022/02/10 05:23:29;;;;;;;12.45;7.05;;;2.50;99.90;;;;;;5028659;28;20697;-75
2022/02/10 05:32:42;;;;;;;7.63;6.50;;;2.50;99.90;;;;;;5029520;28;20208;-75
2022/02/10 05:35:30;;;;;;;10.25;7.55;;;2.40;99.90;;;;;;5029380;28;20594;-75
2022/02/10 05:38:22;;;;;;;17.50;7.50;;;2.50;99.90;;;;;;5025229;28;20293;-75
2022/02/10 05:44:32;;;;;;;15.63;9.13;;;2.50;99.90;;;;;;5025945;28;20308;-76
2022/02/10 05:53:54;;;;;;;18.77;10.75;;;2.50;99.90;;;;;;5031573;28;20214;-75
2022/02/10 05:56:48;;;;;;;14.07;10.55;;;2.50;99.90;;;;;;5025282;28;20316;-76
2022/02/10 06:00:21;;;;;;;9.85;6.90;;;2.50;99.90;;;;;;5028207;28;20268;-75
2022/02/10 06:49:34;;;;;;;13.40;6.80;;;6.50;99.90;;;;;;5027889;28;20466;-75
2022/02/10 06:52:26;;;;;;;17.17;7.37;;;6.70;99.90;;;;;;5033797;28;20802;-76
2022/02/10 06:55:24;;;;;;;14.17;9.07;;;6.80;99.90;;;;;;5030828;28;20467;-76
2022/02/10 07:10:52;;;;;;;46.57;15.53;;;7.10;99.90;;;;;;5031665;28;20549;-75
2022/02/10 07:13:57;;;;;;;77.20;25.30;;;7.10;99.90;;;;;;5029168;28;20443;-75
2022/02/10 07:51:09;;;;;;;13.40;9.00;;;7.70;99.90;;;;;;5030127;28;20909;-76
2022/02/10 07:54:06;;;;;;;8.97;6.20;;;7.60;99.90;;;;;;5034197;28;20452;-76
2022/02/10 07:57:13;;;;;;;10.33;5.90;;;7.70;99.90;;;;;;5022383;28;20485;-76
2022/02/10 09:04:23;;;;;;;10.20;6.50;;;8.30;99.90;;;;;;5019791;28;20469;-74
2022/02/10 09:07:37;;;;;;;10.03;6.30;;;8.30;99.90;;;;;;5020839;28;20490;-69
2022/02/10 09:11:17;;;;;;;12.17;6.47;;;8.30;99.90;;;;;;5020540;28;20501;-73
2022/02/10 09:20:26;;;;;;;14.07;6.63;;;8.30;99.90;;;;;;5005381;28;20446;-73
2022/02/10 09:57:45;;;;;;;13.20;6.90;;;8.20;99.90;;;;;;5010070;28;20469;-72
2022/02/10 10:00:40;;;;;;;10.30;6.53;;;8.20;99.90;;;;;;5009010;28;20491;-74
2022/02/10 10:03:31;;;;;;;13.93;7.47;;;8.20;99.90;;;;;;5005796;28;20515;-72
2022/02/10 10:06:24;;;;;;;21.63;7.73;;;8.20;99.90;;;;;;5008939;28;20833;-73
2022/02/10 10:12:42;;;;;;;19.73;7.70;;;8.20;99.90;;;;;;5004424;28;20440;-74
2022/02/10 10:15:40;;;;;;;11.73;6.80;;;8.30;99.90;;;;;;5008570;28;20469;-74
2022/02/10 10:21:44;;;;;;;16.60;9.07;;;8.30;99.90;;;;;;5009503;28;20993;-74
2022/02/10 10:24:48;;;;;;;22.80;9.37;;;8.40;99.90;;;;;;5002061;28;20446;-74
2022/02/10 10:49:59;;;;;;;16.77;7.63;;;8.50;99.90;;;;;;5015025;28;20480;-73
2022/02/10 10:53:05;;;;;;;15.60;7.70;;;8.50;99.90;;;;;;5001242;28;20911;-74
2022/02/10 10:56:00;;;;;;;14.77;8.83;;;8.50;99.90;;;;;;5016409;28;20463;-74
2022/02/10 10:59:08;;;;;;;14.00;7.40;;;8.50;99.90;;;;;;5009191;28;20457;-74
2022/02/10 11:36:50;;;;;;;15.63;8.57;;;8.40;99.90;;;;;;5003760;28;20676;-72
2022/02/10 11:39:53;;;;;;;9.67;7.30;;;8.50;99.90;;;;;;5007609;28;20437;-74
2022/02/10 11:42:55;;;;;;;11.33;7.80;;;8.50;99.90;;;;;;5014389;28;20816;-73
2022/02/10 12:37:19;;;;;;;9.97;6.63;;;8.50;99.90;;;;;;4966731;28;20420;-74
2022/02/10 12:42:08;;;;;;;13.67;6.90;;;8.50;99.90;;;;;;5002093;28;20518;-74
2022/02/10 13:49:38;;;;;;;8.73;6.27;;;8.40;99.90;;;;;;5022063;28;20425;-75
2022/02/10 14:13:27;;;;;;;11.50;7.00;;;8.50;99.90;;;;;;5104317;27;20534;-75
2022/02/10 14:19:19;;;;;;;9.10;6.83;;;8.50;99.90;;;;;;5060324;28;20437;-73
2022/02/10 14:22:11;;;;;;;10.27;6.10;;;8.50;99.90;;;;;;5054323;28;20463;-72
2022/02/10 14:28:00;;;;;;;12.13;6.83;;;8.50;99.90;;;;;;5062333;28;20438;-72
2022/02/10 14:30:47;;;;;;;14.60;7.20;;;8.50;99.90;;;;;;5061779;28;20445;-72
2022/02/10 14:33:36;;;;;;;13.93;7.03;;;8.40;99.90;;;;;;5059857;28;20428;-74
2022/02/10 14:36:28;;;;;;;10.50;6.50;;;8.50;99.90;;;;;;5067200;28;20472;-74
2022/02/10 15:16:43;;;;;;;7.27;5.00;;;8.40;99.90;;;;;;5033829;28;20506;-74
2022/02/10 16:15:33;;;;;;;7.90;5.07;;;8.10;99.90;;;;;;5045818;28;20652;-74
2022/02/10 16:18:19;;;;;;;7.70;5.30;;;8.10;99.90;;;;;;5048218;28;20412;-75
2022/02/10 16:21:06;;;;;;;7.33;5.50;;;8.10;99.90;;;;;;5044385;28;20446;-74
2022/02/10 16:23:59;;;;;;;7.33;5.03;;;8.20;99.90;;;;;;5048871;28;20428;-74
2022/02/10 16:26:57;;;;;;;13.30;5.90;;;8.10;99.90;;;;;;5059594;28;20462;-74
2022/02/10 16:29:43;;;;;;;9.83;6.00;;;8.10;99.90;;;;;;5043809;28;20445;-75
2022/02/10 16:32:32;;;;;;;8.63;5.83;;;8.10;99.90;;;;;;5048292;28;20529;-75
2022/02/10 16:35:18;;;;;;;8.43;5.53;;;8.00;99.90;;;;;;5048387;28;20536;-74
2022/02/10 16:38:05;;;;;;;7.73;5.70;;;8.10;99.90;;;;;;5047910;28;20465;-74
2022/02/10 16:40:50;;;;;;;6.90;5.40;;;8.10;99.90;;;;;;5046330;28;20436;-72
2022/02/10 16:43:36;;;;;;;7.00;5.50;;;8.10;99.90;;;;;;5049197;28;20922;-72
2022/02/10 16:46:23;;;;;;;9.90;6.00;;;8.00;99.90;;;;;;5049919;28;20466;-74
2022/02/10 16:49:09;;;;;;;8.10;6.07;;;8.10;99.90;;;;;;5047565;28;20453;-74
2022/02/10 16:51:55;;;;;;;10.03;6.03;;;8.10;99.90;;;;;;5044323;28;20548;-74
2022/02/10 16:54:44;;;;;;;11.30;6.90;;;8.10;99.90;;;;;;5051185;28;20970;-74
2022/02/10 16:57:38;;;;;;;9.60;7.00;;;8.10;99.90;;;;;;5047001;28;20445;-74
2022/02/10 17:00:58;;;;;;;8.13;6.30;;;8.10;99.90;;;;;;5042925;28;20521;-74
2022/02/10 17:03:50;;;;;;;10.10;6.27;;;8.10;99.90;;;;;;5051248;28;20491;-74
2022/02/10 17:19:05;;;;;;;10.37;6.67;;;8.00;99.90;;;;;;5049011;28;20529;-75
2022/02/10 17:25:17;;;;;;;11.50;7.57;;;8.00;99.90;;;;;;5045095;28;20446;-75
2022/02/10 17:28:07;;;;;;;12.40;7.57;;;8.10;99.90;;;;;;5044788;28;20442;-72
2022/02/10 17:31:23;;;;;;;12.57;8.00;;;8.10;99.90;;;;;;5046066;28;20865;-74
2022/02/10 17:34:25;;;;;;;11.17;7.07;;;8.10;99.90;;;;;;5046018;28;20416;-71
2022/02/10 17:37:27;;;;;;;7.93;6.23;;;8.10;99.90;;;;;;5050249;28;20433;-74
2022/02/10 17:46:19;;;;;;;13.63;7.70;;;8.10;99.90;;;;;;5049418;28;20840;-72
2022/02/10 17:52:14;;;;;;;12.47;7.97;;;8.20;99.90;;;;;;5047581;28;20473;-72
2022/02/10 17:54:59;;;;;;;10.40;7.77;;;8.10;99.90;;;;;;5049851;28;20572;-71
2022/02/10 17:57:45;;;;;;;15.27;9.23;;;8.10;99.90;;;;;;5048482;28;20474;-72
2022/02/10 18:00:31;;;;;;;12.90;7.90;;;8.10;99.90;;;;;;5045421;28;20437;-72
2022/02/10 18:03:18;;;;;;;17.50;8.57;;;8.10;99.90;;;;;;5046470;28;20469;-72
2022/02/10 18:06:19;;;;;;;14.23;8.73;;;8.10;99.90;;;;;;5054138;28;20823;-72
2022/02/10 18:09:25;;;;;;;14.07;7.60;;;8.10;99.90;;;;;;5041642;28;20930;-72
2022/02/10 18:15:19;;;;;;;13.23;8.20;;;8.10;99.90;;;;;;5045940;28;20447;-72
2022/02/10 18:18:14;;;;;;;11.77;7.60;;;8.00;99.90;;;;;;5048162;28;20450;-72
2022/02/10 18:21:08;;;;;;;13.37;8.80;;;8.00;99.90;;;;;;5046254;28;20443;-72
2022/02/10 18:24:07;;;;;;;12.90;7.53;;;8.00;99.90;;;;;;5050041;28;20437;-72
2022/02/10 18:27:13;;;;;;;13.00;8.50;;;8.00;99.90;;;;;;5047809;28;20493;-72
2022/02/10 18:33:32;;;;;;;12.07;8.47;;;8.00;99.90;;;;;;5020755;28;20485;-72
2022/02/10 19:07:17;;;;;;;13.40;8.47;;;7.80;99.90;;;;;;5048256;28;20462;-75
2022/02/10 19:10:05;;;;;;;14.73;8.83;;;7.80;99.90;;;;;;5042059;28;20424;-74
2022/02/10 19:12:55;;;;;;;14.63;9.73;;;7.70;99.90;;;;;;5049653;28;20892;-74
2022/02/10 19:15:40;;;;;;;15.70;9.40;;;7.70;99.90;;;;;;5046040;28;20458;-74
2022/02/10 19:18:26;;;;;;;13.83;8.77;;;7.70;99.90;;;;;;5045867;28;20449;-73
2022/02/10 19:21:13;;;;;;;14.20;9.30;;;7.80;99.90;;;;;;5055050;28;20456;-74
2022/02/10 19:23:59;;;;;;;14.80;10.00;;;7.80;99.90;;;;;;5042564;28;20577;-74
2022/02/10 19:26:50;;;;;;;10.47;8.20;;;7.80;99.90;;;;;;5045377;28;20990;-74
2022/02/10 19:29:37;;;;;;;16.97;9.60;;;7.70;99.90;;;;;;5044709;28;20435;-74
2022/02/10 19:32:24;;;;;;;13.60;9.20;;;7.70;99.90;;;;;;5042410;28;20440;-74
2022/02/10 19:35:11;;;;;;;12.80;9.07;;;7.70;99.90;;;;;;5049918;28;20844;-74
2022/02/10 19:38:01;;;;;;;14.03;8.97;;;7.60;99.90;;;;;;5049070;28;21042;-75
2022/02/10 19:40:51;;;;;;;15.57;9.60;;;7.60;99.90;;;;;;5049652;28;20943;-74
2022/02/10 19:43:37;;;;;;;12.23;9.10;;;7.70;99.90;;;;;;5040874;28;20424;-74
2022/02/10 19:46:23;;;;;;;12.07;8.37;;;7.70;99.90;;;;;;5048649;28;20453;-74
2022/02/10 19:49:13;;;;;;;13.40;8.93;;;7.70;99.90;;;;;;5045441;28;20438;-74
2022/02/10 19:51:59;;;;;;;11.73;7.83;;;7.70;99.90;;;;;;5047326;28;20945;-74
2022/02/10 19:54:51;;;;;;;13.40;7.93;;;7.70;99.90;;;;;;5050197;28;20976;-74
2022/02/10 19:57:39;;;;;;;19.90;8.00;;;7.70;99.90;;;;;;5044404;28;20453;-74
2022/02/10 20:00:31;;;;;;;12.63;9.00;;;7.70;99.90;;;;;;5045091;28;20447;-74
2022/02/10 20:03:19;;;;;;;10.27;7.37;;;7.60;99.90;;;;;;5056363;28;20434;-74
2022/02/10 20:06:05;;;;;;;12.80;8.80;;;7.70;99.90;;;;;;5044878;28;20462;-74
2022/02/10 20:08:50;;;;;;;11.90;8.50;;;7.60;99.90;;;;;;5042716;28;20474;-74
2022/02/10 20:11:37;;;;;;;11.73;8.30;;;7.70;99.90;;;;;;5044810;28;21052;-74
2022/02/10 20:14:24;;;;;;;17.90;8.70;;;7.60;99.90;;;;;;5043820;28;20906;-74
2022/02/10 20:17:10;;;;;;;12.57;8.70;;;7.70;99.90;;;;;;5048075;28;20452;-75
2022/02/10 20:19:56;;;;;;;10.30;7.23;;;7.70;99.90;;;;;;5050380;28;20532;-74
2022/02/10 20:22:41;;;;;;;12.10;7.40;;;7.70;99.90;;;;;;5047406;28;20520;-75
2022/02/10 20:25:27;;;;;;;13.03;8.13;;;7.70;99.90;;;;;;5040894;28;20475;-75
2022/02/10 20:28:16;;;;;;;10.40;7.37;;;7.70;99.90;;;;;;5040104;28;20967;-75
2022/02/10 20:31:03;;;;;;;13.97;8.17;;;7.70;99.90;;;;;;5050657;28;20567;-75
2022/02/10 20:33:48;;;;;;;13.27;8.07;;;7.70;99.90;;;;;;5048369;28;20868;-75
2022/02/10 20:36:36;;;;;;;12.53;7.73;;;7.70;99.90;;;;;;5050736;28;20456;-74
2022/02/10 20:39:25;;;;;;;11.90;8.40;;;7.80;99.90;;;;;;5044179;28;20450;-74
2022/02/10 20:42:16;;;;;;;11.67;7.90;;;7.70;99.90;;;;;;5044322;28;20527;-75
2022/02/10 20:45:05;;;;;;;13.17;8.13;;;7.70;99.90;;;;;;5043061;28;20564;-74
2022/02/10 20:47:51;;;;;;;13.53;7.80;;;7.70;99.90;;;;;;5042950;28;20420;-75
2022/02/10 20:50:36;;;;;;;11.73;7.40;;;7.70;99.90;;;;;;5047296;28;20511;-75
2022/02/10 20:53:24;;;;;;;11.70;7.27;;;7.70;99.90;;;;;;5047317;28;21364;-75
2022/02/10 20:56:12;;;;;;;13.80;8.00;;;7.70;99.90;;;;;;5048102;28;20980;-74
2022/02/10 20:59:06;;;;;;;11.47;7.70;;;7.60;99.90;;;;;;5041715;28;20425;-75
2022/02/10 21:01:58;;;;;;;9.60;7.00;;;7.60;99.90;;;;;;5048573;28;20441;-74
2022/02/10 21:04:50;;;;;;;14.03;8.13;;;7.50;99.90;;;;;;5045852;28;20433;-75
2022/02/10 21:07:40;;;;;;;13.50;7.83;;;7.60;99.90;;;;;;5040554;28;20432;-74
2022/02/10 21:10:28;;;;;;;15.37;8.00;;;7.60;99.90;;;;;;5045795;28;20424;-75
2022/02/10 21:13:13;;;;;;;11.93;8.40;;;7.60;99.90;;;;;;5044347;28;20473;-75
2022/02/10 21:16:00;;;;;;;12.40;7.63;;;7.60;99.90;;;;;;5050084;28;20524;-76
2022/02/10 21:18:48;;;;;;;12.47;8.40;;;7.60;99.90;;;;;;5043363;28;20484;-75
2022/02/10 21:21:33;;;;;;;11.10;8.50;;;7.50;99.90;;;;;;5050637;28;20453;-75
2022/02/10 21:24:25;;;;;;;12.27;7.93;;;7.50;99.90;;;;;;5048544;28;20430;-75
2022/02/10 21:30:15;;;;;;;14.33;9.07;;;7.50;99.90;;;;;;5052196;28;20468;-75
2022/02/10 21:33:03;;;;;;;13.00;8.80;;;7.40;99.90;;;;;;5044708;28;20459;-75
2022/02/10 21:39:23;;;;;;;13.60;8.47;;;7.40;99.90;;;;;;4983270;28;20466;-75
2022/02/10 21:54:59;;;;;;;13.03;8.80;;;7.30;99.90;;;;;;5043123;28;20444;-75
2022/02/10 22:05:10;;;;;;;16.20;9.40;;;7.30;99.90;;;;;;5045689;28;20483;-75
2022/02/10 22:10:57;;;;;;;15.20;8.33;;;7.30;99.90;;;;;;5045218;28;20560;-75
2022/02/10 22:17:03;;;;;;;12.20;8.50;;;7.30;99.90;;;;;;5036060;28;20455;-75
2022/02/10 22:19:57;;;;;;;14.57;9.50;;;7.30;99.90;;;;;;5047276;28;20419;-74
2022/02/10 22:23:00;;;;;;;14.90;7.70;;;7.30;99.90;;;;;;5046833;28;21059;-75
2022/02/10 22:25:47;;;;;;;13.77;8.47;;;7.40;99.90;;;;;;5041676;28;20465;-75
2022/02/10 22:28:45;;;;;;;13.50;7.70;;;7.30;99.90;;;;;;5049256;28;20438;-75
2022/02/10 22:31:40;;;;;;;13.17;7.97;;;7.30;99.90;;;;;;5051769;28;20406;-74
2022/02/10 22:34:33;;;;;;;13.13;7.73;;;7.40;99.90;;;;;;5046378;28;20989;-75
2022/02/10 22:37:20;;;;;;;11.90;8.20;;;7.40;99.90;;;;;;5041274;28;20430;-74
2022/02/10 22:40:23;;;;;;;9.33;7.23;;;7.40;99.90;;;;;;5052274;28;20445;-74
2022/02/10 22:43:09;;;;;;;11.97;8.23;;;7.40;99.90;;;;;;5053343;28;20833;-75
2022/02/10 22:45:55;;;;;;;11.77;7.83;;;7.50;99.90;;;;;;5045504;28;20583;-75
2022/02/10 22:48:44;;;;;;;9.40;6.00;;;7.40;99.90;;;;;;5054128;28;20442;-74
2022/02/10 22:51:33;;;;;;;10.50;7.30;;;7.40;99.90;;;;;;5055017;28;20419;-74
2022/02/10 22:54:20;;;;;;;9.47;7.20;;;7.30;99.90;;;;;;5050998;28;20599;-74
2022/02/10 22:57:06;;;;;;;9.20;6.70;;;7.30;99.90;;;;;;5042848;28;20461;-74
2022/02/10 22:59:53;;;;;;;11.03;7.33;;;7.30;99.90;;;;;;5045869;28;20440;-74
2022/02/10 23:02:39;;;;;;;11.50;8.37;;;7.20;99.90;;;;;;5044544;28;20424;-74
2022/02/10 23:05:25;;;;;;;10.57;7.37;;;7.30;99.90;;;;;;5049102;28;20462;-74
2022/02/10 23:08:11;;;;;;;11.63;7.67;;;7.20;99.90;;;;;;5050277;28;20961;-74
2022/02/10 23:10:57;;;;;;;10.53;7.70;;;7.30;99.90;;;;;;5050010;28;20469;-75
2022/02/10 23:13:45;;;;;;;10.80;7.53;;;7.20;99.90;;;;;;5052659;28;20466;-74
2022/02/10 23:16:31;;;;;;;18.33;7.67;;;7.20;99.90;;;;;;5040393;28;21049;-74
2022/02/10 23:19:17;;;;;;;10.10;7.37;;;7.20;99.90;;;;;;5049889;28;20475;-75
2022/02/10 23:22:03;;;;;;;11.17;7.80;;;7.20;99.90;;;;;;5043690;28;20455;-75
2022/02/10 23:24:49;;;;;;;16.87;8.40;;;7.20;99.90;;;;;;5045586;28;20527;-75
2022/02/10 23:27:34;;;;;;;11.50;8.30;;;7.20;99.90;;;;;;5051063;28;20528;-74
2022/02/10 23:30:24;;;;;;;15.10;8.87;;;7.30;99.90;;;;;;5051964;28;20786;-77
2022/02/10 23:33:16;;;;;;;11.80;8.20;;;7.20;99.90;;;;;;5047107;28;20538;-75
2022/02/10 23:39:12;;;;;;;17.47;9.80;;;7.20;99.90;;;;;;5058153;28;20438;-73
2022/02/10 23:42:07;;;;;;;12.70;9.10;;;7.10;99.90;;;;;;5047345;28;20799;-76
2022/02/10 23:44:52;;;;;;;14.20;7.40;;;7.20;99.90;;;;;;5051268;28;20430;-75
2022/02/10 23:47:39;;;;;;;14.13;9.40;;;7.20;99.90;;;;;;5044978;28;20423;-75
2022/02/10 23:50:27;;;;;;;14.43;9.40;;;7.20;99.90;;;;;;5052289;28;20419;-75
2022/02/10 23:53:13;;;;;;;11.43;8.80;;;7.20;99.90;;;;;;5052237;28;20412;-75
2022/02/10 23:56:01;;;;;;;13.50;9.27;;;7.10;99.90;;;;;;5051302;28;21067;-74
2022/02/10 23:58:53;;;;;;;13.20;9.20;;;7.20;99.90;;;;;;5049359;28;20433;-75
